ETD302 OPLA-OMAA
Flight info
| Callsign | ETD302 |
|---|---|
| Flight time | 2h 53m |
| Altitude | 40000 |
| Route | MIMAL G214 RK J173 SK J132 BIREX DCT ADGUL T385 TAPDO A454 VUSET R462 MIXAM P899 ROVOS |
| Aircraft | B789/H-SDE1E2E3FGHIJ2J3J4J5M1RWXY/LB1D1 |
Departure
| Time | 2026-04-30 18:51 |
|---|---|
| Airport | Allama Iqbal International Airport (OPLA) |
Arrival
| Time | 2026-04-30 21:45 |
|---|---|
| Airport | Zayed International Airport (OMAA) |
| Time | Latitude | Longitude | Altitude | Speed | Heading |
|---|---|---|---|---|---|
| 2026-04-30 18:34 | 31.52039 | 74.40942 | 723 ft | 0 kts | 90° |
| 2026-04-30 18:36 | 31.52039 | 74.40940 | 723 ft | 1 kts | 90° |
| 2026-04-30 18:36 | 31.52039 | 74.40897 | 741 ft | 3 kts | 90° |
| 2026-04-30 18:37 | 31.52039 | 74.40876 | 723 ft | 2 kts | 91° |
| 2026-04-30 18:37 | 31.52039 | 74.40861 | 723 ft | 3 kts | 104° |
| 2026-04-30 18:37 | 31.52046 | 74.40842 | 722 ft | 3 kts | 149° |
| 2026-04-30 18:37 | 31.52063 | 74.40837 | 723 ft | 3 kts | 187° |
| 2026-04-30 18:38 | 31.52087 | 74.40841 | 723 ft | 1 kts | 182° |
| 2026-04-30 18:38 | 31.52089 | 74.40841 | 723 ft | 0 kts | 181° |
| 2026-04-30 18:41 | 31.52083 | 74.40841 | 723 ft | 2 kts | 181° |
| 2026-04-30 18:41 | 31.52067 | 74.40841 | 725 ft | 3 kts | 181° |
| 2026-04-30 18:41 | 31.52041 | 74.40840 | 724 ft | 5 kts | 181° |
| 2026-04-30 18:42 | 31.52005 | 74.40839 | 725 ft | 6 kts | 181° |
| 2026-04-30 18:42 | 31.51902 | 74.40838 | 724 ft | 9 kts | 180° |
| 2026-04-30 18:42 | 31.51835 | 74.40837 | 724 ft | 10 kts | 181° |
| 2026-04-30 18:45 | 31.51236 | 74.40651 | 723 ft | 15 kts | 180° |
| 2026-04-30 18:45 | 31.51131 | 74.40649 | 722 ft | 16 kts | 181° |
| 2026-04-30 18:45 | 31.51018 | 74.40649 | 722 ft | 17 kts | 180° |
| 2026-04-30 18:46 | 31.50901 | 74.40646 | 722 ft | 16 kts | 181° |
| 2026-04-30 18:46 | 31.50794 | 74.40633 | 723 ft | 13 kts | 195° |
| 2026-04-30 18:46 | 31.50723 | 74.40578 | 723 ft | 11 kts | 225° |
| 2026-04-30 18:46 | 31.50719 | 74.40574 | 724 ft | 0 kts | 226° |
| 2026-04-30 18:47 | 31.50719 | 74.40573 | 724 ft | 0 kts | 226° |
| 2026-04-30 18:48 | 31.50715 | 74.40569 | 724 ft | 1 kts | 226° |
| 2026-04-30 18:48 | 31.50701 | 74.40551 | 726 ft | 5 kts | 226° |
| 2026-04-30 18:48 | 31.50678 | 74.40515 | 723 ft | 6 kts | 244° |
| 2026-04-30 18:48 | 31.50673 | 74.40471 | 721 ft | 5 kts | 282° |
| 2026-04-30 18:49 | 31.50693 | 74.40445 | 721 ft | 4 kts | 329° |
| 2026-04-30 18:49 | 31.50722 | 74.40437 | 722 ft | 6 kts | 353° |
| 2026-04-30 18:49 | 31.50771 | 74.40435 | 722 ft | 2 kts | 360° |
| 2026-04-30 18:49 | 31.50777 | 74.40435 | 722 ft | 0 kts | 1° |
| 2026-04-30 18:50 | 31.50873 | 74.40437 | 722 ft | 36 kts | 1° |
| 2026-04-30 18:50 | 31.51330 | 74.40444 | 725 ft | 96 kts | 1° |
| 2026-04-30 18:51 | 31.52178 | 74.40458 | 727 ft | 146 kts | 1° |
| 2026-04-30 18:51 | 31.53280 | 74.40483 | 1022 ft | 157 kts | 4° |
| 2026-04-30 18:51 | 31.54399 | 74.40496 | 1364 ft | 167 kts | 359° |
| 2026-04-30 18:51 | 31.55586 | 74.40531 | 1856 ft | 170 kts | 4° |
| 2026-04-30 18:52 | 31.56773 | 74.40567 | 2424 ft | 173 kts | 0° |
| 2026-04-30 18:52 | 31.57879 | 74.40014 | 2821 ft | 181 kts | 313° |
| 2026-04-30 18:52 | 31.58378 | 74.38660 | 3302 ft | 187 kts | 271° |
| 2026-04-30 18:52 | 31.58058 | 74.37201 | 3834 ft | 190 kts | 250° |
| 2026-04-30 18:53 | 31.57589 | 74.35653 | 4505 ft | 215 kts | 250° |
| 2026-04-30 18:53 | 31.57066 | 74.33877 | 5227 ft | 245 kts | 251° |
| 2026-04-30 18:53 | 31.56487 | 74.31873 | 5972 ft | 272 kts | 251° |
| 2026-04-30 18:53 | 31.55842 | 74.29647 | 6693 ft | 304 kts | 251° |
| 2026-04-30 18:54 | 31.55125 | 74.27180 | 7449 ft | 333 kts | 251° |
| 2026-04-30 18:54 | 31.54356 | 74.24538 | 8219 ft | 359 kts | 252° |
| 2026-04-30 18:54 | 31.53523 | 74.21679 | 9071 ft | 378 kts | 252° |
| 2026-04-30 18:54 | 31.52640 | 74.18724 | 10110 ft | 388 kts | 249° |
| 2026-04-30 18:55 | 31.51231 | 74.15972 | 11095 ft | 401 kts | 233° |
| 2026-04-30 18:55 | 31.47385 | 74.11112 | 13162 ft | 416 kts | 229° |
| 2026-04-30 18:55 | 31.45385 | 74.08641 | 14161 ft | 421 kts | 230° |
| 2026-04-30 18:56 | 31.41362 | 74.03541 | 16147 ft | 429 kts | 230° |
| 2026-04-30 18:56 | 31.39315 | 74.00976 | 17173 ft | 432 kts | 230° |
| 2026-04-30 18:56 | 31.37256 | 73.98405 | 18207 ft | 432 kts | 230° |
| 2026-04-30 18:57 | 31.33243 | 73.93181 | 20092 ft | 429 kts | 233° |
| 2026-04-30 18:57 | 31.31279 | 73.90558 | 21084 ft | 428 kts | 232° |
| 2026-04-30 18:57 | 31.29304 | 73.87945 | 22109 ft | 426 kts | 232° |
| 2026-04-30 18:58 | 31.25463 | 73.82780 | 23944 ft | 422 kts | 233° |
| 2026-04-30 18:58 | 31.23527 | 73.80184 | 24692 ft | 422 kts | 233° |
| 2026-04-30 18:58 | 31.21595 | 73.77609 | 25455 ft | 421 kts | 234° |
| 2026-04-30 18:59 | 31.17747 | 73.72467 | 27044 ft | 417 kts | 235° |
| 2026-04-30 19:00 | 31.12030 | 73.64840 | 29265 ft | 416 kts | 237° |
| 2026-04-30 19:00 | 31.10128 | 73.62305 | 30005 ft | 414 kts | 237° |
| 2026-04-30 19:00 | 31.06354 | 73.57281 | 31333 ft | 408 kts | 238° |
| 2026-04-30 19:01 | 31.02659 | 73.52370 | 32719 ft | 400 kts | 238° |
| 2026-04-30 19:01 | 31.00828 | 73.49940 | 33440 ft | 395 kts | 239° |
| 2026-04-30 19:02 | 30.97243 | 73.45183 | 34743 ft | 384 kts | 238° |
| 2026-04-30 19:02 | 30.93788 | 73.40606 | 36049 ft | 371 kts | 238° |
| 2026-04-30 19:03 | 30.90414 | 73.36132 | 37034 ft | 366 kts | 238° |
| 2026-04-30 19:03 | 30.87059 | 73.31699 | 37953 ft | 362 kts | 237° |
| 2026-04-30 19:04 | 30.83741 | 73.27315 | 38719 ft | 359 kts | 237° |
| 2026-04-30 19:04 | 30.80460 | 73.22989 | 39419 ft | 354 kts | 236° |
| 2026-04-30 19:05 | 30.77207 | 73.18694 | 39721 ft | 361 kts | 236° |
| 2026-04-30 19:05 | 30.73804 | 73.14214 | 39736 ft | 377 kts | 236° |
| 2026-04-30 19:06 | 30.70246 | 73.09538 | 39736 ft | 394 kts | 235° |
| 2026-04-30 19:06 | 30.64656 | 73.02200 | 39733 ft | 417 kts | 235° |
| 2026-04-30 19:07 | 30.60729 | 72.97054 | 39730 ft | 432 kts | 234° |
| 2026-04-30 19:07 | 30.58713 | 72.94415 | 39731 ft | 439 kts | 234° |
| 2026-04-30 19:08 | 30.54603 | 72.89041 | 39728 ft | 450 kts | 234° |
| 2026-04-30 19:08 | 30.50402 | 72.83554 | 39719 ft | 460 kts | 234° |
| 2026-04-30 19:09 | 30.43965 | 72.75163 | 39712 ft | 472 kts | 234° |
| 2026-04-30 19:09 | 30.39561 | 72.69432 | 39708 ft | 479 kts | 234° |
| 2026-04-30 19:10 | 30.30674 | 72.57895 | 39702 ft | 479 kts | 234° |
| 2026-04-30 19:11 | 30.24005 | 72.49258 | 39697 ft | 480 kts | 234° |
| 2026-04-30 19:12 | 30.19398 | 72.43721 | 39695 ft | 486 kts | 225° |
| 2026-04-30 19:12 | 30.13893 | 72.39060 | 39683 ft | 490 kts | 222° |
| 2026-04-30 19:13 | 30.02792 | 72.29873 | 39668 ft | 490 kts | 222° |
| 2026-04-30 19:14 | 29.97276 | 72.25317 | 39658 ft | 490 kts | 222° |
| 2026-04-30 19:14 | 29.91725 | 72.20738 | 39657 ft | 490 kts | 221° |
| 2026-04-30 19:15 | 29.86387 | 72.15920 | 39681 ft | 481 kts | 232° |
| 2026-04-30 19:15 | 29.79725 | 72.07316 | 39669 ft | 479 kts | 234° |
| 2026-04-30 19:16 | 29.75347 | 72.01594 | 39665 ft | 479 kts | 234° |
| 2026-04-30 19:17 | 29.68711 | 71.92956 | 39656 ft | 480 kts | 234° |
| 2026-04-30 19:17 | 29.62068 | 71.84324 | 39647 ft | 479 kts | 234° |
| 2026-04-30 19:18 | 29.55454 | 71.75748 | 39642 ft | 479 kts | 234° |
| 2026-04-30 19:19 | 29.51027 | 71.70018 | 39642 ft | 479 kts | 234° |
| 2026-04-30 19:19 | 29.44395 | 71.61450 | 39633 ft | 478 kts | 234° |
| 2026-04-30 19:20 | 29.39973 | 71.55747 | 39636 ft | 478 kts | 234° |
| 2026-04-30 19:21 | 29.33354 | 71.47225 | 39634 ft | 478 kts | 234° |
| 2026-04-30 19:22 | 29.24461 | 71.35952 | 39635 ft | 478 kts | 233° |
| 2026-04-30 19:23 | 29.11054 | 71.19176 | 39635 ft | 475 kts | 233° |
| 2026-04-30 19:24 | 29.05100 | 71.11746 | 39633 ft | 475 kts | 233° |
| 2026-04-30 19:25 | 28.93953 | 70.97875 | 39630 ft | 473 kts | 233° |
| 2026-04-30 19:26 | 28.85060 | 70.86844 | 39625 ft | 473 kts | 233° |
| 2026-04-30 19:27 | 28.78357 | 70.78550 | 39642 ft | 473 kts | 233° |
| 2026-04-30 19:28 | 28.71644 | 70.70260 | 39635 ft | 473 kts | 233° |
| 2026-04-30 19:29 | 28.62720 | 70.59265 | 39636 ft | 474 kts | 232° |
| 2026-04-30 19:30 | 28.53764 | 70.48261 | 39626 ft | 473 kts | 232° |
| 2026-04-30 19:31 | 28.44850 | 70.37336 | 39629 ft | 473 kts | 232° |
| 2026-04-30 19:31 | 28.38141 | 70.29087 | 39624 ft | 471 kts | 237° |
| 2026-04-30 19:32 | 28.34744 | 70.22844 | 39644 ft | 463 kts | 248° |
| 2026-04-30 19:32 | 28.31910 | 70.16269 | 39640 ft | 463 kts | 248° |
| 2026-04-30 19:33 | 28.29091 | 70.09693 | 39641 ft | 463 kts | 248° |
| 2026-04-30 19:33 | 28.26281 | 70.03173 | 39637 ft | 463 kts | 248° |
| 2026-04-30 19:34 | 28.23449 | 69.96601 | 39638 ft | 464 kts | 248° |
| 2026-04-30 19:35 | 28.19191 | 69.86746 | 39632 ft | 464 kts | 248° |
| 2026-04-30 19:35 | 28.16362 | 69.80212 | 39632 ft | 464 kts | 248° |
| 2026-04-30 19:36 | 28.13509 | 69.73632 | 39626 ft | 464 kts | 248° |
| 2026-04-30 19:36 | 28.09223 | 69.63769 | 39622 ft | 464 kts | 248° |
| 2026-04-30 19:37 | 28.06383 | 69.57247 | 39627 ft | 463 kts | 248° |
| 2026-04-30 19:37 | 28.03533 | 69.50711 | 39623 ft | 462 kts | 248° |
| 2026-04-30 19:38 | 28.00683 | 69.44186 | 39625 ft | 461 kts | 247° |
| 2026-04-30 19:38 | 27.97836 | 69.37679 | 39625 ft | 461 kts | 247° |
| 2026-04-30 19:39 | 27.95009 | 69.31228 | 39624 ft | 460 kts | 247° |
| 2026-04-30 19:39 | 27.92164 | 69.24746 | 39622 ft | 459 kts | 247° |
| 2026-04-30 19:40 | 27.89318 | 69.18271 | 39627 ft | 459 kts | 247° |
| 2026-04-30 19:40 | 27.86484 | 69.11836 | 39620 ft | 459 kts | 247° |
| 2026-04-30 19:41 | 27.83638 | 69.05381 | 39620 ft | 458 kts | 247° |
| 2026-04-30 19:41 | 27.80788 | 68.98928 | 39617 ft | 458 kts | 247° |
| 2026-04-30 19:42 | 27.77939 | 68.92489 | 39614 ft | 458 kts | 246° |
| 2026-04-30 19:42 | 27.75105 | 68.86093 | 39612 ft | 457 kts | 246° |
| 2026-04-30 19:43 | 27.72467 | 68.79582 | 39630 ft | 454 kts | 255° |
| 2026-04-30 19:44 | 27.70523 | 68.69137 | 39625 ft | 453 kts | 261° |
| 2026-04-30 19:44 | 27.69391 | 68.62179 | 39624 ft | 453 kts | 261° |
| 2026-04-30 19:45 | 27.68242 | 68.55175 | 39625 ft | 453 kts | 261° |
| 2026-04-30 19:45 | 27.67095 | 68.48193 | 39620 ft | 452 kts | 261° |
| 2026-04-30 19:46 | 27.65950 | 68.41253 | 39620 ft | 453 kts | 261° |
| 2026-04-30 19:46 | 27.64792 | 68.34254 | 39621 ft | 453 kts | 261° |
| 2026-04-30 19:47 | 27.63631 | 68.27256 | 39620 ft | 453 kts | 260° |
| 2026-04-30 19:47 | 27.62475 | 68.20315 | 39617 ft | 453 kts | 260° |
| 2026-04-30 19:48 | 27.61309 | 68.13333 | 39614 ft | 453 kts | 260° |
| 2026-04-30 19:48 | 27.60138 | 68.06348 | 39614 ft | 453 kts | 260° |
| 2026-04-30 19:49 | 27.58962 | 67.99351 | 39615 ft | 453 kts | 260° |
| 2026-04-30 19:49 | 27.57200 | 67.88912 | 39612 ft | 453 kts | 260° |
| 2026-04-30 19:50 | 27.56017 | 67.81933 | 39608 ft | 453 kts | 260° |
| 2026-04-30 19:50 | 27.54832 | 67.74960 | 39613 ft | 452 kts | 260° |
| 2026-04-30 19:51 | 27.53645 | 67.67999 | 39617 ft | 452 kts | 260° |
| 2026-04-30 19:51 | 27.52463 | 67.61088 | 39628 ft | 451 kts | 259° |
| 2026-04-30 19:52 | 27.51267 | 67.54117 | 39640 ft | 452 kts | 259° |
| 2026-04-30 19:52 | 27.50077 | 67.47205 | 39660 ft | 451 kts | 259° |
| 2026-04-30 19:53 | 27.48878 | 67.40261 | 39672 ft | 452 kts | 259° |
| 2026-04-30 19:53 | 27.47673 | 67.33304 | 39694 ft | 452 kts | 259° |
| 2026-04-30 19:54 | 27.46464 | 67.26344 | 39705 ft | 452 kts | 259° |
| 2026-04-30 19:54 | 27.45343 | 67.19415 | 39721 ft | 452 kts | 261° |
| 2026-04-30 19:55 | 27.44259 | 67.12408 | 39740 ft | 453 kts | 261° |
| 2026-04-30 19:55 | 27.43199 | 67.05426 | 39749 ft | 453 kts | 261° |
| 2026-04-30 19:56 | 27.42122 | 66.98423 | 39771 ft | 452 kts | 260° |
| 2026-04-30 19:56 | 27.41055 | 66.91479 | 39776 ft | 453 kts | 260° |
| 2026-04-30 19:57 | 27.39973 | 66.84475 | 39778 ft | 454 kts | 260° |
| 2026-04-30 19:57 | 27.38886 | 66.77464 | 39786 ft | 454 kts | 260° |
| 2026-04-30 19:58 | 27.37802 | 66.70487 | 39785 ft | 455 kts | 260° |
| 2026-04-30 19:58 | 27.36707 | 66.63468 | 39784 ft | 455 kts | 260° |
| 2026-04-30 19:59 | 27.35606 | 66.56436 | 39808 ft | 457 kts | 260° |
| 2026-04-30 20:00 | 27.33948 | 66.45892 | 39806 ft | 458 kts | 260° |
| 2026-04-30 20:00 | 27.32834 | 66.38834 | 39802 ft | 457 kts | 260° |
| 2026-04-30 20:01 | 27.31158 | 66.28262 | 39805 ft | 457 kts | 259° |
| 2026-04-30 20:01 | 27.30041 | 66.21248 | 39801 ft | 458 kts | 259° |
| 2026-04-30 20:02 | 27.28347 | 66.10647 | 39802 ft | 459 kts | 259° |
| 2026-04-30 20:03 | 27.25699 | 66.00394 | 39814 ft | 460 kts | 246° |
| 2026-04-30 20:03 | 27.23001 | 65.93863 | 39816 ft | 460 kts | 246° |
| 2026-04-30 20:04 | 27.20301 | 65.87363 | 39814 ft | 461 kts | 246° |
| 2026-04-30 20:05 | 27.16248 | 65.77609 | 39804 ft | 459 kts | 246° |
| 2026-04-30 20:05 | 27.12188 | 65.67865 | 39811 ft | 459 kts | 246° |
| 2026-04-30 20:06 | 27.09490 | 65.61400 | 39815 ft | 459 kts | 246° |
| 2026-04-30 20:06 | 27.06782 | 65.54924 | 39812 ft | 458 kts | 246° |
| 2026-04-30 20:07 | 27.04067 | 65.48441 | 39812 ft | 458 kts | 246° |
| 2026-04-30 20:08 | 26.99994 | 65.38733 | 39807 ft | 458 kts | 246° |
| 2026-04-30 20:08 | 26.97292 | 65.32307 | 39808 ft | 458 kts | 246° |
| 2026-04-30 20:09 | 26.94569 | 65.25842 | 39807 ft | 459 kts | 246° |
| 2026-04-30 20:09 | 26.90479 | 65.16147 | 39799 ft | 458 kts | 246° |
| 2026-04-30 20:10 | 26.86395 | 65.06488 | 39799 ft | 459 kts | 246° |
| 2026-04-30 20:11 | 26.82274 | 64.96767 | 39793 ft | 460 kts | 245° |
| 2026-04-30 20:11 | 26.79522 | 64.90287 | 39793 ft | 461 kts | 245° |
| 2026-04-30 20:12 | 26.75844 | 64.81644 | 39791 ft | 462 kts | 245° |
| 2026-04-30 20:13 | 26.73089 | 64.75180 | 39791 ft | 463 kts | 245° |
| 2026-04-30 20:13 | 26.70306 | 64.68661 | 39791 ft | 463 kts | 245° |
| 2026-04-30 20:14 | 26.67530 | 64.62169 | 39783 ft | 463 kts | 245° |
| 2026-04-30 20:14 | 26.64749 | 64.55675 | 39783 ft | 462 kts | 245° |
| 2026-04-30 20:15 | 26.61968 | 64.49193 | 39781 ft | 462 kts | 245° |
| 2026-04-30 20:15 | 26.59178 | 64.42697 | 39780 ft | 464 kts | 245° |
| 2026-04-30 20:16 | 26.56397 | 64.36233 | 39771 ft | 464 kts | 245° |
| 2026-04-30 20:16 | 26.53596 | 64.29732 | 39770 ft | 464 kts | 245° |
| 2026-04-30 20:17 | 26.50792 | 64.23236 | 39767 ft | 464 kts | 245° |
| 2026-04-30 20:17 | 26.47987 | 64.16744 | 39766 ft | 464 kts | 244° |
| 2026-04-30 20:18 | 26.45196 | 64.10297 | 39761 ft | 463 kts | 244° |
| 2026-04-30 20:18 | 26.42385 | 64.03813 | 39762 ft | 463 kts | 244° |
| 2026-04-30 20:19 | 26.39572 | 63.97336 | 39760 ft | 463 kts | 244° |
| 2026-04-30 20:19 | 26.36780 | 63.90914 | 39759 ft | 463 kts | 244° |
| 2026-04-30 20:20 | 26.33966 | 63.84452 | 39759 ft | 463 kts | 244° |
| 2026-04-30 20:20 | 26.31140 | 63.77974 | 39760 ft | 463 kts | 244° |
| 2026-04-30 20:21 | 26.28337 | 63.71558 | 39756 ft | 463 kts | 244° |
| 2026-04-30 20:21 | 26.25511 | 63.65098 | 39757 ft | 462 kts | 244° |
| 2026-04-30 20:22 | 26.22688 | 63.58656 | 39759 ft | 463 kts | 244° |
| 2026-04-30 20:22 | 26.19878 | 63.52253 | 39751 ft | 462 kts | 244° |
| 2026-04-30 20:23 | 26.17047 | 63.45811 | 39750 ft | 463 kts | 244° |
| 2026-04-30 20:23 | 26.14208 | 63.39361 | 39748 ft | 464 kts | 244° |
| 2026-04-30 20:24 | 26.11367 | 63.32914 | 39742 ft | 463 kts | 244° |
| 2026-04-30 20:24 | 26.08522 | 63.26471 | 39738 ft | 462 kts | 244° |
| 2026-04-30 20:25 | 26.04280 | 63.16878 | 39737 ft | 463 kts | 244° |
| 2026-04-30 20:26 | 25.99755 | 63.07413 | 39733 ft | 463 kts | 234° |
| 2026-04-30 20:26 | 25.93114 | 62.99592 | 39721 ft | 466 kts | 227° |
| 2026-04-30 20:27 | 25.84230 | 62.89777 | 39709 ft | 466 kts | 226° |
| 2026-04-30 20:28 | 25.75029 | 62.79632 | 39705 ft | 466 kts | 226° |
| 2026-04-30 20:30 | 25.63498 | 62.66948 | 39708 ft | 468 kts | 226° |
| 2026-04-30 20:31 | 25.49625 | 62.51739 | 39708 ft | 468 kts | 226° |
| 2026-04-30 20:32 | 25.38016 | 62.39051 | 39709 ft | 469 kts | 226° |
| 2026-04-30 20:33 | 25.31064 | 62.31470 | 39707 ft | 469 kts | 226° |
| 2026-04-30 20:34 | 25.24074 | 62.23860 | 39710 ft | 469 kts | 226° |
| 2026-04-30 20:35 | 25.17083 | 62.16264 | 39708 ft | 470 kts | 226° |
| 2026-04-30 20:35 | 25.10112 | 62.08701 | 39710 ft | 470 kts | 226° |
| 2026-04-30 20:36 | 25.05441 | 62.03639 | 39710 ft | 470 kts | 226° |
| 2026-04-30 20:37 | 24.98424 | 61.96049 | 39716 ft | 471 kts | 226° |
| 2026-04-30 20:37 | 24.93776 | 61.91028 | 39717 ft | 469 kts | 226° |
| 2026-04-30 20:38 | 24.89098 | 61.85980 | 39724 ft | 471 kts | 226° |
| 2026-04-30 20:38 | 24.84404 | 61.80920 | 39721 ft | 471 kts | 226° |
| 2026-04-30 20:39 | 24.77388 | 61.73368 | 39725 ft | 472 kts | 226° |
| 2026-04-30 20:40 | 24.70336 | 61.65790 | 39735 ft | 472 kts | 225° |
| 2026-04-30 20:40 | 24.65617 | 61.60725 | 39736 ft | 473 kts | 225° |
| 2026-04-30 20:41 | 24.58572 | 61.53177 | 39736 ft | 473 kts | 225° |
| 2026-04-30 20:41 | 24.53855 | 61.48128 | 39738 ft | 473 kts | 225° |
| 2026-04-30 20:42 | 24.49130 | 61.43078 | 39744 ft | 474 kts | 225° |
| 2026-04-30 20:43 | 24.42275 | 61.35355 | 39770 ft | 472 kts | 235° |
| 2026-04-30 20:43 | 24.39230 | 61.28992 | 39771 ft | 473 kts | 252° |
| 2026-04-30 20:44 | 24.36903 | 61.18451 | 39762 ft | 474 kts | 256° |
| 2026-04-30 20:45 | 24.33966 | 61.04345 | 39766 ft | 474 kts | 256° |
| 2026-04-30 20:45 | 24.32503 | 60.97344 | 39768 ft | 473 kts | 256° |
| 2026-04-30 20:46 | 24.29544 | 60.83264 | 39774 ft | 473 kts | 256° |
| 2026-04-30 20:47 | 24.27317 | 60.72715 | 39775 ft | 473 kts | 256° |
| 2026-04-30 20:48 | 24.25093 | 60.62213 | 39773 ft | 473 kts | 256° |
| 2026-04-30 20:48 | 24.23600 | 60.55183 | 39777 ft | 473 kts | 256° |
| 2026-04-30 20:49 | 24.22105 | 60.48158 | 39779 ft | 473 kts | 256° |
| 2026-04-30 20:50 | 24.19866 | 60.37679 | 39780 ft | 473 kts | 256° |
| 2026-04-30 20:50 | 24.18358 | 60.30637 | 39782 ft | 474 kts | 256° |
| 2026-04-30 20:51 | 24.16847 | 60.23597 | 39783 ft | 474 kts | 256° |
| 2026-04-30 20:51 | 24.14573 | 60.13041 | 39781 ft | 474 kts | 256° |
| 2026-04-30 20:52 | 24.13056 | 60.06017 | 39784 ft | 474 kts | 256° |
| 2026-04-30 20:53 | 24.10779 | 59.95505 | 39787 ft | 474 kts | 256° |
| 2026-04-30 20:53 | 24.09253 | 59.88482 | 39786 ft | 473 kts | 256° |
| 2026-04-30 20:54 | 24.06970 | 59.78002 | 39790 ft | 474 kts | 256° |
| 2026-04-30 20:55 | 24.04665 | 59.67461 | 39790 ft | 474 kts | 256° |
| 2026-04-30 20:55 | 24.03134 | 59.60479 | 39794 ft | 473 kts | 256° |
| 2026-04-30 20:56 | 24.00828 | 59.49992 | 39789 ft | 471 kts | 255° |
| 2026-04-30 20:57 | 23.98516 | 59.39516 | 39796 ft | 471 kts | 256° |
| 2026-04-30 20:57 | 23.96981 | 59.32579 | 39797 ft | 471 kts | 255° |
| 2026-04-30 20:58 | 23.94917 | 59.23279 | 39796 ft | 472 kts | 255° |
| 2026-04-30 20:58 | 23.93365 | 59.16302 | 39793 ft | 471 kts | 255° |
| 2026-04-30 20:59 | 23.91304 | 59.05838 | 39793 ft | 471 kts | 257° |
| 2026-04-30 21:00 | 23.88742 | 58.92297 | 39792 ft | 470 kts | 257° |
| 2026-04-30 21:01 | 23.86752 | 58.81840 | 39791 ft | 471 kts | 257° |
| 2026-04-30 21:02 | 23.84741 | 58.71311 | 39789 ft | 471 kts | 257° |
| 2026-04-30 21:02 | 23.83411 | 58.64359 | 39791 ft | 469 kts | 257° |
| 2026-04-30 21:03 | 23.82070 | 58.57375 | 39793 ft | 469 kts | 257° |
| 2026-04-30 21:03 | 23.80727 | 58.50392 | 39797 ft | 468 kts | 257° |
| 2026-04-30 21:04 | 23.79383 | 58.43426 | 39788 ft | 469 kts | 257° |
| 2026-04-30 21:04 | 23.77370 | 58.33026 | 39789 ft | 469 kts | 257° |
| 2026-04-30 21:05 | 23.76016 | 58.26048 | 39785 ft | 469 kts | 257° |
| 2026-04-30 21:05 | 23.74659 | 58.19079 | 39785 ft | 468 kts | 257° |
| 2026-04-30 21:06 | 23.73304 | 58.12133 | 39795 ft | 469 kts | 257° |
| 2026-04-30 21:06 | 23.71948 | 58.05200 | 39800 ft | 469 kts | 257° |
| 2026-04-30 21:07 | 23.70581 | 57.98232 | 39816 ft | 469 kts | 257° |
| 2026-04-30 21:07 | 23.70001 | 57.91150 | 39842 ft | 473 kts | 272° |
| 2026-04-30 21:08 | 23.71227 | 57.84046 | 39834 ft | 477 kts | 280° |
| 2026-04-30 21:08 | 23.72750 | 57.77051 | 39833 ft | 477 kts | 280° |
| 2026-04-30 21:09 | 23.74290 | 57.70000 | 39836 ft | 476 kts | 280° |
| 2026-04-30 21:09 | 23.75818 | 57.62959 | 39831 ft | 476 kts | 280° |
| 2026-04-30 21:10 | 23.77338 | 57.55956 | 39835 ft | 476 kts | 280° |
| 2026-04-30 21:10 | 23.78862 | 57.48916 | 39833 ft | 476 kts | 280° |
| 2026-04-30 21:11 | 23.80382 | 57.41877 | 39838 ft | 476 kts | 280° |
| 2026-04-30 21:11 | 23.81900 | 57.34835 | 39839 ft | 476 kts | 280° |
| 2026-04-30 21:12 | 23.83415 | 57.27789 | 39843 ft | 476 kts | 280° |
| 2026-04-30 21:12 | 23.84916 | 57.20787 | 39843 ft | 477 kts | 280° |
| 2026-04-30 21:13 | 23.86427 | 57.13726 | 39848 ft | 477 kts | 280° |
| 2026-04-30 21:13 | 23.87936 | 57.06661 | 39853 ft | 476 kts | 280° |
| 2026-04-30 21:14 | 23.89438 | 56.99606 | 39857 ft | 476 kts | 280° |
| 2026-04-30 21:14 | 23.90930 | 56.92586 | 39858 ft | 475 kts | 280° |
| 2026-04-30 21:15 | 23.92425 | 56.85532 | 39863 ft | 476 kts | 280° |
| 2026-04-30 21:15 | 23.93918 | 56.78472 | 39873 ft | 476 kts | 280° |
| 2026-04-30 21:16 | 23.95397 | 56.71456 | 39872 ft | 477 kts | 280° |
| 2026-04-30 21:16 | 23.96884 | 56.64395 | 39885 ft | 477 kts | 280° |
| 2026-04-30 21:17 | 23.97622 | 56.60885 | 39880 ft | 465 kts | 280° |
| 2026-04-30 21:17 | 23.98337 | 56.57493 | 39875 ft | 449 kts | 280° |
| 2026-04-30 21:17 | 23.99720 | 56.50859 | 39880 ft | 451 kts | 279° |
| 2026-04-30 21:18 | 24.01127 | 56.44133 | 39893 ft | 461 kts | 280° |
| 2026-04-30 21:18 | 24.02568 | 56.37222 | 39907 ft | 469 kts | 279° |
| 2026-04-30 21:19 | 24.04029 | 56.30197 | 39906 ft | 477 kts | 280° |
| 2026-04-30 21:19 | 24.06081 | 56.23259 | 39909 ft | 487 kts | 288° |
| 2026-04-30 21:20 | 24.08523 | 56.16336 | 39904 ft | 487 kts | 288° |
| 2026-04-30 21:20 | 24.10954 | 56.09402 | 39903 ft | 486 kts | 288° |
| 2026-04-30 21:21 | 24.12145 | 56.06007 | 39879 ft | 470 kts | 288° |
| 2026-04-30 21:21 | 24.13304 | 56.02707 | 39573 ft | 460 kts | 287° |
| 2026-04-30 21:21 | 24.15553 | 55.96267 | 38856 ft | 446 kts | 287° |
| 2026-04-30 21:22 | 24.16658 | 55.93104 | 38312 ft | 444 kts | 288° |
| 2026-04-30 21:22 | 24.19892 | 55.83852 | 35817 ft | 417 kts | 287° |
| 2026-04-30 21:23 | 24.20929 | 55.80857 | 34944 ft | 424 kts | 287° |
| 2026-04-30 21:23 | 24.21798 | 55.77772 | 34074 ft | 421 kts | 281° |
| 2026-04-30 21:23 | 24.23310 | 55.71609 | 32128 ft | 414 kts | 282° |
| 2026-04-30 21:24 | 24.24053 | 55.68570 | 31193 ft | 411 kts | 282° |
| 2026-04-30 21:24 | 24.24779 | 55.65562 | 30288 ft | 405 kts | 282° |
| 2026-04-30 21:24 | 24.25496 | 55.62608 | 29292 ft | 397 kts | 282° |
| 2026-04-30 21:24 | 24.26161 | 55.59710 | 28265 ft | 387 kts | 278° |
| 2026-04-30 21:25 | 24.27253 | 55.54039 | 26300 ft | 374 kts | 279° |
| 2026-04-30 21:25 | 24.27791 | 55.51275 | 25364 ft | 367 kts | 279° |
| 2026-04-30 21:25 | 24.28308 | 55.48593 | 24470 ft | 362 kts | 279° |
| 2026-04-30 21:26 | 24.29333 | 55.43273 | 22566 ft | 351 kts | 279° |
| 2026-04-30 21:26 | 24.29833 | 55.40676 | 21563 ft | 346 kts | 279° |
| 2026-04-30 21:27 | 24.30870 | 55.35595 | 19641 ft | 337 kts | 286° |
| 2026-04-30 21:27 | 24.31626 | 55.33192 | 18726 ft | 328 kts | 286° |
| 2026-04-30 21:27 | 24.32338 | 55.30875 | 17814 ft | 313 kts | 286° |
| 2026-04-30 21:28 | 24.33657 | 55.26572 | 16065 ft | 287 kts | 285° |
| 2026-04-30 21:28 | 24.34280 | 55.24545 | 15358 ft | 274 kts | 285° |
| 2026-04-30 21:28 | 24.35521 | 55.20485 | 14042 ft | 287 kts | 286° |
| 2026-04-30 21:29 | 24.36168 | 55.18380 | 13390 ft | 293 kts | 286° |
| 2026-04-30 21:29 | 24.38135 | 55.11938 | 11376 ft | 302 kts | 286° |
| 2026-04-30 21:30 | 24.39446 | 55.07645 | 10274 ft | 279 kts | 287° |
| 2026-04-30 21:31 | 24.41043 | 55.01885 | 8775 ft | 255 kts | 270° |
| 2026-04-30 21:31 | 24.39880 | 54.98376 | 7998 ft | 249 kts | 228° |
| 2026-04-30 21:32 | 24.37103 | 54.96231 | 7221 ft | 248 kts | 198° |
| 2026-04-30 21:32 | 24.35400 | 54.96113 | 6847 ft | 254 kts | 172° |
| 2026-04-30 21:32 | 24.33765 | 54.96859 | 6480 ft | 259 kts | 145° |
| 2026-04-30 21:32 | 24.32526 | 54.98304 | 6122 ft | 261 kts | 130° |
| 2026-04-30 21:33 | 24.31407 | 54.99872 | 5746 ft | 260 kts | 129° |
| 2026-04-30 21:33 | 24.29235 | 55.02951 | 5091 ft | 243 kts | 129° |
| 2026-04-30 21:33 | 24.28234 | 55.04346 | 5011 ft | 223 kts | 128° |
| 2026-04-30 21:34 | 24.27282 | 55.05675 | 5005 ft | 221 kts | 128° |
| 2026-04-30 21:34 | 24.24910 | 55.07513 | 4976 ft | 213 kts | 176° |
| 2026-04-30 21:34 | 24.23511 | 55.07180 | 4974 ft | 204 kts | 210° |
| 2026-04-30 21:35 | 24.22384 | 55.06279 | 5000 ft | 198 kts | 220° |
| 2026-04-30 21:35 | 24.21288 | 55.05327 | 4883 ft | 202 kts | 220° |
| 2026-04-30 21:35 | 24.20202 | 55.04372 | 4739 ft | 199 kts | 224° |
| 2026-04-30 21:35 | 24.19543 | 55.03101 | 4515 ft | 196 kts | 259° |
| 2026-04-30 21:36 | 24.19659 | 55.01645 | 4306 ft | 194 kts | 292° |
| 2026-04-30 21:36 | 24.20405 | 55.00430 | 4132 ft | 192 kts | 309° |
| 2026-04-30 21:37 | 24.22708 | 54.96893 | 3993 ft | 191 kts | 300° |
| 2026-04-30 21:37 | 24.23395 | 54.95639 | 3996 ft | 192 kts | 302° |
| 2026-04-30 21:37 | 24.24083 | 54.94380 | 3994 ft | 192 kts | 301° |
| 2026-04-30 21:37 | 24.24768 | 54.93097 | 3854 ft | 194 kts | 301° |
| 2026-04-30 21:38 | 24.25448 | 54.91821 | 3710 ft | 193 kts | 301° |
| 2026-04-30 21:38 | 24.26113 | 54.90547 | 3577 ft | 192 kts | 299° |
| 2026-04-30 21:38 | 24.26557 | 54.89153 | 3404 ft | 194 kts | 292° |
| 2026-04-30 21:38 | 24.27202 | 54.87896 | 3252 ft | 191 kts | 307° |
| 2026-04-30 21:39 | 24.27997 | 54.86729 | 3109 ft | 191 kts | 309° |
| 2026-04-30 21:39 | 24.28807 | 54.85577 | 2988 ft | 190 kts | 309° |
| 2026-04-30 21:39 | 24.29611 | 54.84440 | 2991 ft | 189 kts | 309° |
| 2026-04-30 21:39 | 24.30419 | 54.83297 | 2993 ft | 189 kts | 310° |
| 2026-04-30 21:40 | 24.31224 | 54.82160 | 2998 ft | 187 kts | 310° |
| 2026-04-30 21:40 | 24.31991 | 54.81074 | 2992 ft | 175 kts | 310° |
| 2026-04-30 21:40 | 24.32725 | 54.80035 | 2914 ft | 171 kts | 310° |
| 2026-04-30 21:40 | 24.33454 | 54.79016 | 2714 ft | 167 kts | 310° |
| 2026-04-30 21:41 | 24.34165 | 54.78010 | 2514 ft | 166 kts | 310° |
| 2026-04-30 21:41 | 24.34869 | 54.77014 | 2307 ft | 164 kts | 310° |
| 2026-04-30 21:41 | 24.35569 | 54.76024 | 2103 ft | 162 kts | 310° |
| 2026-04-30 21:41 | 24.36205 | 54.75128 | 1899 ft | 140 kts | 311° |
| 2026-04-30 21:42 | 24.36807 | 54.74287 | 1726 ft | 140 kts | 311° |
| 2026-04-30 21:42 | 24.37398 | 54.73452 | 1562 ft | 137 kts | 311° |
| 2026-04-30 21:42 | 24.37987 | 54.72623 | 1382 ft | 139 kts | 310° |
| 2026-04-30 21:42 | 24.38578 | 54.71787 | 1207 ft | 138 kts | 310° |
| 2026-04-30 21:43 | 24.39170 | 54.70950 | 1029 ft | 138 kts | 310° |
| 2026-04-30 21:43 | 24.39558 | 54.70404 | 919 ft | 137 kts | 310° |
| 2026-04-30 21:43 | 24.40339 | 54.69304 | 710 ft | 138 kts | 308° |
| 2026-04-30 21:43 | 24.40925 | 54.68478 | 531 ft | 136 kts | 308° |
| 2026-04-30 21:44 | 24.41497 | 54.67662 | 358 ft | 135 kts | 307° |
| 2026-04-30 21:44 | 24.42070 | 54.66852 | 174 ft | 133 kts | 308° |
| 2026-04-30 21:44 | 24.42615 | 54.66081 | 89 ft | 112 kts | 308° |
| 2026-04-30 21:44 | 24.43042 | 54.65466 | 86 ft | 90 kts | 310° |
| 2026-04-30 21:45 | 24.43398 | 54.64979 | 84 ft | 65 kts | 308° |
| 2026-04-30 21:45 | 24.43632 | 54.64661 | 86 ft | 38 kts | 308° |
| 2026-04-30 21:45 | 24.43771 | 54.64504 | 85 ft | 26 kts | 331° |
| 2026-04-30 21:45 | 24.43930 | 54.64425 | 88 ft | 24 kts | 338° |
| 2026-04-30 21:46 | 24.43968 | 54.64407 | 87 ft | 0 kts | 338° |
| 2026-04-30 21:47 | 24.43971 | 54.64406 | 87 ft | 1 kts | 338° |
| 2026-04-30 21:47 | 24.43990 | 54.64397 | 88 ft | 6 kts | 338° |
| 2026-04-30 21:47 | 24.44048 | 54.64363 | 84 ft | 8 kts | 325° |
| 2026-04-30 21:47 | 24.44079 | 54.64333 | 86 ft | 9 kts | 313° |
| 2026-04-30 21:48 | 24.44129 | 54.64314 | 87 ft | 7 kts | 13° |
| 2026-04-30 21:48 | 24.44172 | 54.64342 | 86 ft | 8 kts | 37° |
| 2026-04-30 21:48 | 24.44225 | 54.64386 | 86 ft | 10 kts | 37° |
| 2026-04-30 21:48 | 24.44265 | 54.64452 | 83 ft | 11 kts | 76° |
| 2026-04-30 21:49 | 24.44299 | 54.64519 | 83 ft | 10 kts | 46° |
| 2026-04-30 21:49 | 24.44358 | 54.64569 | 85 ft | 11 kts | 38° |
| 2026-04-30 21:49 | 24.44436 | 54.64635 | 85 ft | 16 kts | 38° |
| 2026-04-30 21:49 | 24.44529 | 54.64714 | 86 ft | 17 kts | 34° |
| 2026-04-30 21:50 | 24.44600 | 54.64700 | 82 ft | 9 kts | 311° |
| 2026-04-30 21:50 | 24.44640 | 54.64641 | 86 ft | 10 kts | 309° |
| 2026-04-30 21:50 | 24.44687 | 54.64582 | 83 ft | 7 kts | 303° |
| 2026-04-30 21:50 | 24.44688 | 54.64551 | 81 ft | 3 kts | 258° |
| 2026-04-30 21:51 | 24.44675 | 54.64526 | 87 ft | 5 kts | 236° |
| 2026-04-30 21:51 | 24.44659 | 54.64500 | 81 ft | 1 kts | 234° |
| 2026-04-30 21:51 | 24.44653 | 54.64492 | 85 ft | 2 kts | 233° |
| 2026-04-30 21:51 | 24.44652 | 54.64490 | 85 ft | 0 kts | 233° |